Time;durP1;ratioP1;P1;durP2;ratioP2;P2;SDS_P1;SDS_P2;PMS_P1;PMS_P2;Temp;Humidity;BMP_temperature;BMP_pressure;BME280_temperature;BME280_humidity;BME280_pressure;Samples;Min_cycle;Max_cycle;Signal;HPM_P1;HPM_P2
2021/05/05 00:00:58;;;;;;;3.95;1.40;;;;;;;;;;5097500;28;20227;-56
2021/05/05 00:03:33;;;;;;;4.07;1.65;;;;;;;;;;5097789;28;20198;-54
2021/05/05 00:06:12;;;;;;;7.35;2.75;;;;;;;;;;5097551;28;20535;-59
2021/05/05 00:08:46;;;;;;;3.10;1.58;;;;;;;;;;5097012;28;20202;-55
2021/05/05 00:11:14;;;;;;;4.03;2.20;;;;;;;;;;5097698;28;20210;-51
2021/05/05 00:13:48;;;;;;;4.90;2.28;;;;;;;;;;5099639;28;20210;-59
2021/05/05 00:16:23;;;;;;;3.55;1.38;;;;;;;;;;5098378;28;20201;-58
2021/05/05 00:18:50;;;;;;;14.55;2.47;;;;;;;;;;5096706;28;20206;-55
2021/05/05 00:21:18;;;;;;;3.03;1.35;;;;;;;;;;5098587;28;20228;-52
2021/05/05 00:23:55;;;;;;;4.47;1.65;;;;;;;;;;5097968;28;20194;-56
2021/05/05 00:26:22;;;;;;;3.80;1.90;;;;;;;;;;5094065;28;20213;-57
2021/05/05 00:28:49;;;;;;;4.57;1.52;;;;;;;;;;5094647;28;20629;-52
2021/05/05 00:31:36;;;;;;;5.13;1.70;;;;;;;;;;5097770;28;20202;-58
2021/05/05 00:34:05;;;;;;;6.07;2.10;;;;;;;;;;5097439;28;20278;-57
2021/05/05 00:36:34;;;;;;;6.57;2.75;;;;;;;;;;5097330;28;20245;-58
2021/05/05 00:39:02;;;;;;;7.65;2.97;;;;;;;;;;5097671;28;20238;-60
2021/05/05 00:41:29;;;;;;;4.07;1.83;;;;;;;;;;5097460;28;20230;-54
2021/05/05 00:43:56;;;;;;;3.60;1.50;;;;;;;;;;5097988;28;20217;-61
2021/05/05 00:46:41;;;;;;;4.28;2.20;;;;;;;;;;5097938;28;20213;-56
2021/05/05 00:49:08;;;;;;;5.68;1.80;;;;;;;;;;5097478;28;20234;-55
2021/05/05 00:51:36;;;;;;;4.80;1.90;;;;;;;;;;5097282;28;20210;-55
2021/05/05 00:54:05;;;;;;;6.28;2.40;;;;;;;;;;5097423;28;20221;-59
2021/05/05 00:56:31;;;;;;;5.35;1.50;;;;;;;;;;5097765;28;20206;-55
2021/05/05 00:59:04;;;;;;;5.22;2.00;;;;;;;;;;5097338;28;20213;-60
2021/05/05 01:01:31;;;;;;;4.10;2.10;;;;;;;;;;5097246;28;20250;-60
2021/05/05 01:04:02;;;;;;;4.43;1.73;;;;;;;;;;5098858;28;20201;-61
2021/05/05 01:06:35;;;;;;;5.75;2.53;;;;;;;;;;5098694;28;20206;-52
2021/05/05 01:09:02;;;;;;;3.45;1.35;;;;;;;;;;5097544;28;20240;-53
2021/05/05 01:11:30;;;;;;;4.15;1.50;;;;;;;;;;5097022;28;20228;-56
2021/05/05 01:13:57;;;;;;;5.07;1.83;;;;;;;;;;5097206;28;20179;-52
2021/05/05 01:16:24;;;;;;;5.13;2.03;;;;;;;;;;5097243;28;20209;-56
2021/05/05 01:18:51;;;;;;;6.78;1.90;;;;;;;;;;5085913;28;20211;-51
2021/05/05 01:21:20;;;;;;;2.97;1.90;;;;;;;;;;5076780;28;20227;-54
2021/05/05 01:23:47;;;;;;;10.50;2.00;;;;;;;;;;5076960;28;20206;-59
2021/05/05 01:26:14;;;;;;;5.22;1.98;;;;;;;;;;5080116;28;20488;-56
2021/05/05 01:29:04;;;;;;;5.03;2.00;;;;;;;;;;5097554;28;20218;-57
2021/05/05 01:31:31;;;;;;;4.30;1.85;;;;;;;;;;5097025;28;20236;-55
2021/05/05 01:33:58;;;;;;;3.83;2.20;;;;;;;;;;5097437;28;20315;-51
2021/05/05 01:36:37;;;;;;;5.80;1.40;;;;;;;;;;5096928;28;20234;-55
2021/05/05 01:39:05;;;;;;;5.32;1.95;;;;;;;;;;5096593;28;20209;-51
2021/05/05 01:41:33;;;;;;;4.65;2.65;;;;;;;;;;5096562;28;20218;-55
2021/05/05 01:44:05;;;;;;;6.22;2.00;;;;;;;;;;5096788;28;20202;-52
2021/05/05 01:46:32;;;;;;;7.25;2.95;;;;;;;;;;5096790;28;20299;-56
2021/05/05 01:48:59;;;;;;;6.85;1.95;;;;;;;;;;5097118;28;20210;-54
2021/05/05 01:51:39;;;;;;;7.07;2.67;;;;;;;;;;5096919;28;20213;-52
2021/05/05 01:54:06;;;;;;;5.55;2.15;;;;;;;;;;5096548;28;20269;-57
2021/05/05 01:56:33;;;;;;;4.60;2.10;;;;;;;;;;5096622;28;20198;-58
2021/05/05 01:58:59;;;;;;;3.03;1.73;;;;;;;;;;5096280;28;20209;-55
2021/05/05 02:01:26;;;;;;;6.18;2.53;;;;;;;;;;5096216;28;20217;-55
2021/05/05 02:03:58;;;;;;;4.60;2.10;;;;;;;;;;5095919;28;20190;-55
2021/05/05 02:06:25;;;;;;;6.13;2.55;;;;;;;;;;5096131;28;20193;-53
2021/05/05 02:08:53;;;;;;;4.93;2.47;;;;;;;;;;5096079;28;20213;-53
2021/05/05 02:11:25;;;;;;;5.78;3.10;;;;;;;;;;5093895;28;20212;-55
2021/05/05 02:13:55;;;;;;;9.30;2.78;;;;;;;;;;5075701;28;20210;-51
2021/05/05 02:16:24;;;;;;;7.20;2.95;;;;;;;;;;5078180;28;20194;-57
2021/05/05 02:19:01;;;;;;;5.60;2.60;;;;;;;;;;5095909;28;20292;-53
2021/05/05 02:21:28;;;;;;;8.95;2.67;;;;;;;;;;5095224;28;20392;-53
2021/05/05 02:23:56;;;;;;;6.05;2.20;;;;;;;;;;5095680;28;20212;-60
2021/05/05 02:26:23;;;;;;;6.03;2.58;;;;;;;;;;5095716;28;20214;-54
2021/05/05 02:28:50;;;;;;;7.72;2.75;;;;;;;;;;5095712;28;20210;-58
2021/05/05 02:31:17;;;;;;;5.85;2.42;;;;;;;;;;5078157;28;20206;-51
2021/05/05 02:33:44;;;;;;;4.38;2.00;;;;;;;;;;5076600;28;20308;-59
2021/05/05 02:36:11;;;;;;;6.70;2.70;;;;;;;;;;5093140;28;20234;-56
2021/05/05 02:38:43;;;;;;;10.55;3.60;;;;;;;;;;5076210;28;20211;-56
2021/05/05 02:41:11;;;;;;;14.55;2.95;;;;;;;;;;5074555;28;20226;-60
2021/05/05 02:43:47;;;;;;;6.03;3.17;;;;;;;;;;5074042;28;20205;-52
2021/05/05 02:46:14;;;;;;;6.97;3.25;;;;;;;;;;5074902;28;20260;-54
2021/05/05 02:48:40;;;;;;;6.88;2.47;;;;;;;;;;5092356;28;20217;-54
2021/05/05 02:51:07;;;;;;;6.72;2.40;;;;;;;;;;5094981;28;20228;-55
2021/05/05 02:53:34;;;;;;;8.65;2.95;;;;;;;;;;5076923;28;20214;-55
2021/05/05 02:56:06;;;;;;;5.28;2.63;;;;;;;;;;5074237;28;20211;-52
2021/05/05 02:58:34;;;;;;;6.57;3.05;;;;;;;;;;5074484;28;20198;-53
2021/05/05 03:01:01;;;;;;;6.45;2.33;;;;;;;;;;5074695;28;20214;-55
2021/05/05 03:06:32;;;;;;;8.35;3.80;;;;;;;;;;5094732;28;20249;-57
2021/05/05 03:08:59;;;;;;;8.80;2.72;;;;;;;;;;5090497;28;20232;-56
2021/05/05 03:11:30;;;;;;;6.32;3.15;;;;;;;;;;5095265;28;20197;-56
2021/05/05 03:14:12;;;;;;;9.52;3.95;;;;;;;;;;5091340;28;20230;-51
2021/05/05 03:17:07;;;;;;;7.65;3.42;;;;;;;;;;5086105;28;20204;-53
2021/05/05 03:19:34;;;;;;;10.68;3.60;;;;;;;;;;5094772;28;20194;-59
2021/05/05 03:22:01;;;;;;;7.68;3.30;;;;;;;;;;5095070;28;20373;-54
2021/05/05 03:24:39;;;;;;;10.20;3.78;;;;;;;;;;5092456;28;20218;-51
2021/05/05 03:27:06;;;;;;;9.27;3.55;;;;;;;;;;5087661;28;20206;-52
2021/05/05 03:29:34;;;;;;;7.13;3.40;;;;;;;;;;5080629;28;20206;-56
2021/05/05 03:32:01;;;;;;;6.68;3.13;;;;;;;;;;5093547;28;20231;-54
2021/05/05 03:34:28;;;;;;;8.48;3.75;;;;;;;;;;5101208;28;20217;-54
2021/05/05 03:37:09;;;;;;;8.38;3.10;;;;;;;;;;5100997;28;20201;-60
2021/05/05 03:39:36;;;;;;;11.98;4.28;;;;;;;;;;5101518;28;20244;-59
2021/05/05 03:42:03;;;;;;;10.05;3.45;;;;;;;;;;5101213;28;20358;-54
2021/05/05 03:45:04;;;;;;;5.03;3.15;;;;;;;;;;5081151;28;20190;-59
2021/05/05 03:47:32;;;;;;;11.93;3.22;;;;;;;;;;5080926;28;20257;-57
2021/05/05 03:49:59;;;;;;;8.98;3.80;;;;;;;;;;5081064;28;20198;-57
2021/05/05 03:52:44;;;;;;;7.53;3.00;;;;;;;;;;5099315;28;20284;-53
2021/05/05 03:55:12;;;;;;;12.45;3.95;;;;;;;;;;5100932;28;20228;-57
2021/05/05 03:57:38;;;;;;;11.45;3.83;;;;;;;;;;5101519;28;20187;-59
2021/05/05 04:00:16;;;;;;;9.45;3.03;;;;;;;;;;5100818;28;20260;-56
2021/05/05 04:02:44;;;;;;;12.48;4.22;;;;;;;;;;5080373;28;20209;-56
2021/05/05 04:05:11;;;;;;;9.63;4.10;;;;;;;;;;5092356;28;20209;-53
2021/05/05 04:07:38;;;;;;;5.88;2.85;;;;;;;;;;5101183;28;20225;-60
2021/05/05 04:10:06;;;;;;;11.50;3.65;;;;;;;;;;5100753;28;20214;-52
2021/05/05 04:12:49;;;;;;;8.52;3.50;;;;;;;;;;5101472;28;20210;-56
2021/05/05 04:15:16;;;;;;;10.27;4.18;;;;;;;;;;5087401;28;20227;-50
2021/05/05 04:17:44;;;;;;;7.63;3.13;;;;;;;;;;5095044;28;20537;-58
2021/05/05 04:20:12;;;;;;;10.18;3.55;;;;;;;;;;5099888;28;20216;-57
2021/05/05 04:22:38;;;;;;;8.82;3.95;;;;;;;;;;5082559;28;20206;-57
2021/05/05 04:25:05;;;;;;;8.13;4.00;;;;;;;;;;5101081;28;20289;-54
2021/05/05 04:27:32;;;;;;;25.20;3.97;;;;;;;;;;5099815;28;20206;-53
2021/05/05 04:29:59;;;;;;;13.60;5.15;;;;;;;;;;5100764;28;20203;-57
2021/05/05 04:32:27;;;;;;;11.10;4.45;;;;;;;;;;5100297;28;20204;-55
2021/05/05 04:35:04;;;;;;;6.78;3.30;;;;;;;;;;5100565;28;20224;-51
2021/05/05 04:37:31;;;;;;;15.93;4.20;;;;;;;;;;5093933;28;20221;-48
2021/05/05 04:40:00;;;;;;;10.60;3.90;;;;;;;;;;5096166;28;20206;-59
2021/05/05 04:42:29;;;;;;;14.90;4.40;;;;;;;;;;5098663;28;20222;-55
2021/05/05 04:44:56;;;;;;;8.15;3.45;;;;;;;;;;5096461;28;20198;-60
2021/05/05 04:47:22;;;;;;;10.38;3.20;;;;;;;;;;5091723;28;20190;-57
2021/05/05 04:50:09;;;;;;;17.55;4.38;;;;;;;;;;5098704;28;20186;-53
2021/05/05 04:52:37;;;;;;;7.30;3.58;;;;;;;;;;5095624;28;20209;-58
2021/05/05 04:55:04;;;;;;;11.75;3.88;;;;;;;;;;5096894;28;20273;-53
2021/05/05 04:57:31;;;;;;;7.80;3.15;;;;;;;;;;5096646;28;20189;-47
2021/05/05 04:59:58;;;;;;;14.75;3.42;;;;;;;;;;5093236;28;20229;-53
2021/05/05 05:02:26;;;;;;;11.55;3.88;;;;;;;;;;5096903;28;20228;-57
2021/05/05 05:04:53;;;;;;;8.90;3.30;;;;;;;;;;5097358;28;20202;-54
2021/05/05 05:07:21;;;;;;;8.10;3.90;;;;;;;;;;5077949;28;20234;-56
2021/05/05 05:09:48;;;;;;;7.57;3.80;;;;;;;;;;5088815;28;20197;-59
2021/05/05 05:12:15;;;;;;;12.35;3.80;;;;;;;;;;5095452;28;20232;-58
2021/05/05 05:14:48;;;;;;;10.85;5.07;;;;;;;;;;5095564;28;20202;-56
2021/05/05 05:17:15;;;;;;;6.68;3.00;;;;;;;;;;5078733;28;20241;-57
2021/05/05 05:19:58;;;;;;;12.85;4.70;;;;;;;;;;5075465;28;20213;-54
2021/05/05 05:22:35;;;;;;;6.28;2.80;;;;;;;;;;5076045;28;20480;-58
2021/05/05 05:25:02;;;;;;;6.55;3.33;;;;;;;;;;5075138;28;20198;-52
2021/05/05 05:27:29;;;;;;;6.40;3.97;;;;;;;;;;5077055;28;20211;-51
2021/05/05 05:29:55;;;;;;;11.68;4.53;;;;;;;;;;5095619;28;20221;-56
2021/05/05 05:32:22;;;;;;;9.38;4.47;;;;;;;;;;5094720;28;20174;-54
2021/05/05 05:34:49;;;;;;;9.43;6.22;;;;;;;;;;5092400;28;20213;-53
2021/05/05 05:40:20;;;;;;;7.25;4.00;;;;;;;;;;5095405;28;20197;-54
2021/05/05 05:42:47;;;;;;;13.63;3.83;;;;;;;;;;5080967;28;20215;-57
2021/05/05 05:45:24;;;;;;;6.75;3.30;;;;;;;;;;5074671;28;20198;-58
2021/05/05 05:47:50;;;;;;;10.73;4.15;;;;;;;;;;5075280;28;20206;-53
2021/05/05 05:50:17;;;;;;;13.15;3.75;;;;;;;;;;5075621;28;20222;-59
2021/05/05 05:52:45;;;;;;;7.35;4.13;;;;;;;;;;5094315;28;20264;-58
2021/05/05 05:55:13;;;;;;;39.83;17.30;;;;;;;;;;5094636;28;20214;-58
2021/05/05 05:57:42;;;;;;;8.85;3.85;;;;;;;;;;5094958;28;20198;-59
2021/05/05 06:00:10;;;;;;;10.15;3.65;;;;;;;;;;5084104;28;20195;-56
2021/05/05 06:02:38;;;;;;;9.95;3.45;;;;;;;;;;5091790;28;20229;-59
2021/05/05 06:05:08;;;;;;;8.70;3.80;;;;;;;;;;5094489;28;20265;-57
2021/05/05 06:07:35;;;;;;;6.70;3.23;;;;;;;;;;5094471;28;20468;-56
2021/05/05 06:10:02;;;;;;;9.37;3.60;;;;;;;;;;5090508;28;20451;-55
2021/05/05 06:12:30;;;;;;;8.50;3.20;;;;;;;;;;5094047;28;20587;-51
2021/05/05 06:14:58;;;;;;;8.95;4.32;;;;;;;;;;5093947;28;20220;-58
2021/05/05 06:17:25;;;;;;;11.03;4.27;;;;;;;;;;5074485;28;20209;-51
2021/05/05 06:20:11;;;;;;;8.50;4.20;;;;;;;;;;5073895;28;20490;-59
2021/05/05 06:22:38;;;;;;;17.40;4.25;;;;;;;;;;5091348;28;20392;-59
2021/05/05 06:25:06;;;;;;;9.93;4.10;;;;;;;;;;5088734;28;20203;-57
2021/05/05 06:27:53;;;;;;;14.27;4.77;;;;;;;;;;5090035;28;20451;-60
2021/05/05 06:30:22;;;;;;;13.40;4.90;;;;;;;;;;5094909;28;20463;-55
2021/05/05 06:32:50;;;;;;;7.50;4.70;;;;;;;;;;5089084;28;20449;-50
2021/05/05 06:35:18;;;;;;;13.20;6.03;;;;;;;;;;5096056;28;20440;-57
2021/05/05 06:37:46;;;;;;;10.50;4.40;;;;;;;;;;5094278;28;20480;-58
2021/05/05 06:40:13;;;;;;;14.13;5.67;;;;;;;;;;5095065;28;20456;-52
2021/05/05 06:42:46;;;;;;;18.33;7.40;;;;;;;;;;5093565;28;20646;-58
2021/05/05 06:45:13;;;;;;;13.20;6.13;;;;;;;;;;5092539;28;20456;-53
2021/05/05 06:47:41;;;;;;;11.93;5.73;;;;;;;;;;5092728;28;20479;-57
2021/05/05 06:58:04;;;;;;;13.80;4.17;;;;;;;;;;5089132;28;20206;-59
2021/05/05 07:00:31;;;;;;;14.47;6.90;;;;;;;;;;5091814;28;20210;-56
2021/05/05 07:03:00;;;;;;;11.90;5.43;;;;;;;;;;5090228;28;20536;-56
2021/05/05 07:05:27;;;;;;;16.80;3.70;;;;;;;;;;5087255;28;20500;-60
2021/05/05 07:07:54;;;;;;;12.80;4.50;;;;;;;;;;5092643;28;20503;-57
2021/05/05 07:10:22;;;;;;;6.30;3.87;;;;;;;;;;5091057;28;20468;-57
2021/05/05 07:12:49;;;;;;;5.20;2.70;;;;;;;;;;5093766;28;20452;-52
2021/05/05 07:15:16;;;;;;;4.90;2.97;;;;;;;;;;5093387;28;20447;-56
2021/05/05 07:17:52;;;;;;;9.77;2.85;;;;;;;;;;5093518;28;20483;-57
2021/05/05 07:20:20;;;;;;;4.00;2.00;;;;;;;;;;5091496;28;20205;-59
2021/05/05 07:22:47;;;;;;;6.10;1.90;;;;;;;;;;5092408;28;20476;-53
2021/05/05 07:25:14;;;;;;;3.15;1.70;;;;;;;;;;5093116;28;20206;-52
2021/05/05 07:27:42;;;;;;;7.70;1.67;;;;;;;;;;5093080;28;20209;-58
2021/05/05 07:30:17;;;;;;;6.40;1.98;;;;;;;;;;5092028;28;20201;-58
2021/05/05 07:32:44;;;;;;;3.90;1.48;;;;;;;;;;5071878;28;20256;-57
2021/05/05 07:35:16;;;;;;;6.10;1.80;;;;;;;;;;5077916;28;20257;-53
2021/05/05 07:46:55;;;;;;;4.47;2.65;;;;;;;;;;5020905;28;20196;-54
2021/05/05 07:49:22;;;;;;;18.63;6.35;;;;;;;;;;5030462;28;20274;-52
2021/05/05 07:51:52;;;;;;;7.80;3.90;;;;;;;;;;5054626;28;20194;-53
2021/05/05 07:54:27;;;;;;;7.27;3.10;;;;;;;;;;5090477;28;20456;-61
2021/05/05 07:56:56;;;;;;;11.13;3.40;;;;;;;;;;5092169;28;20434;-61
2021/05/05 07:59:23;;;;;;;3.67;2.30;;;;;;;;;;5092493;28;20457;-56
2021/05/05 08:01:57;;;;;;;6.17;3.07;;;;;;;;;;5092250;28;20472;-61
2021/05/05 08:04:24;;;;;;;7.40;3.03;;;;;;;;;;5090144;28;20490;-60
2021/05/05 08:06:51;;;;;;;9.27;2.97;;;;;;;;;;5091585;28;20478;-60
2021/05/05 08:09:43;;;;;;;5.63;2.80;;;;;;;;;;5090408;28;20865;-59
2021/05/05 08:12:11;;;;;;;7.57;3.27;;;;;;;;;;5075330;28;20461;-58
2021/05/05 08:14:40;;;;;;;4.93;2.70;;;;;;;;;;5095738;28;20475;-55
2021/05/05 08:17:19;;;;;;;12.27;3.30;;;;;;;;;;5090515;28;20871;-60
2021/05/05 08:19:46;;;;;;;4.67;3.10;;;;;;;;;;5095082;28;20455;-61
2021/05/05 08:22:12;;;;;;;6.57;3.50;;;;;;;;;;5092967;28;20534;-58
2021/05/05 08:24:47;;;;;;;5.60;2.70;;;;;;;;;;5094835;28;20500;-54
2021/05/05 08:27:16;;;;;;;4.10;1.83;;;;;;;;;;5095308;28;20431;-56
2021/05/05 08:29:42;;;;;;;4.33;2.03;;;;;;;;;;5096369;28;20432;-52
2021/05/05 08:32:28;;;;;;;4.70;2.33;;;;;;;;;;5091217;28;20448;-54
2021/05/05 08:34:59;;;;;;;4.47;2.28;;;;;;;;;;5096351;28;20194;-57
2021/05/05 08:37:26;;;;;;;4.32;2.72;;;;;;;;;;5096849;28;20190;-58
2021/05/05 08:39:53;;;;;;;4.80;2.50;;;;;;;;;;5075841;28;20229;-58
2021/05/05 08:42:29;;;;;;;4.82;2.75;;;;;;;;;;5075952;28;20234;-61
2021/05/05 08:44:56;;;;;;;4.00;2.67;;;;;;;;;;5093101;28;20198;-59
2021/05/05 08:47:23;;;;;;;6.50;2.60;;;;;;;;;;5095095;28;20188;-51
2021/05/05 08:49:50;;;;;;;5.30;3.30;;;;;;;;;;5083718;28;20231;-54
2021/05/05 08:52:31;;;;;;;4.10;2.78;;;;;;;;;;5095544;28;20202;-50
2021/05/05 08:54:57;;;;;;;5.25;3.03;;;;;;;;;;5094613;28;20190;-55
2021/05/05 08:57:24;;;;;;;7.85;2.30;;;;;;;;;;5095169;28;20198;-58
2021/05/05 08:59:52;;;;;;;5.10;2.65;;;;;;;;;;5092420;28;20186;-58
2021/05/05 09:02:19;;;;;;;7.50;3.45;;;;;;;;;;5083553;28;20214;-52
2021/05/05 09:04:55;;;;;;;6.45;3.65;;;;;;;;;;5094484;28;20234;-55
2021/05/05 09:07:35;;;;;;;7.68;3.95;;;;;;;;;;5086681;28;20210;-58
2021/05/05 09:10:02;;;;;;;4.00;3.13;;;;;;;;;;5090807;28;20241;-62
2021/05/05 09:12:30;;;;;;;8.02;4.63;;;;;;;;;;5086598;28;20199;-52
2021/05/05 09:15:02;;;;;;;8.10;4.32;;;;;;;;;;5083326;28;20186;-55
2021/05/05 09:17:29;;;;;;;7.65;4.60;;;;;;;;;;5094147;28;20216;-54
2021/05/05 09:20:12;;;;;;;6.30;3.95;;;;;;;;;;5078543;28;20704;-60
2021/05/05 09:22:41;;;;;;;8.40;3.90;;;;;;;;;;5081624;28;20236;-55
2021/05/05 09:25:09;;;;;;;8.32;3.88;;;;;;;;;;5093968;28;20198;-55
2021/05/05 09:27:36;;;;;;;7.70;4.13;;;;;;;;;;5083319;28;20210;-61
2021/05/05 09:30:07;;;;;;;6.07;3.70;;;;;;;;;;5093697;28;20202;-53
2021/05/05 09:32:47;;;;;;;5.53;3.35;;;;;;;;;;5093437;28;20293;-51
2021/05/05 09:35:20;;;;;;;5.93;2.70;;;;;;;;;;5093566;28;20221;-59
2021/05/05 09:37:56;;;;;;;4.97;3.60;;;;;;;;;;5093779;28;20406;-60
2021/05/05 09:40:24;;;;;;;4.20;3.03;;;;;;;;;;5092249;28;20213;-57
2021/05/05 09:43:09;;;;;;;9.18;3.40;;;;;;;;;;5092809;28;20237;-54
2021/05/05 09:45:47;;;;;;;4.97;3.20;;;;;;;;;;5091311;28;20230;-55
2021/05/05 09:48:25;;;;;;;7.83;3.50;;;;;;;;;;5089175;28;20206;-50
2021/05/05 09:50:58;;;;;;;6.80;3.20;;;;;;;;;;5094282;28;20456;-58
2021/05/05 09:53:26;;;;;;;6.93;2.30;;;;;;;;;;5081722;28;20840;-55
2021/05/05 09:56:12;;;;;;;6.13;2.70;;;;;;;;;;5091151;28;20448;-59
2021/05/05 09:58:46;;;;;;;6.93;2.60;;;;;;;;;;5093369;28;20463;-59
2021/05/05 10:01:15;;;;;;;7.35;3.00;;;;;;;;;;5093887;28;20472;-60
2021/05/05 10:03:45;;;;;;;9.25;2.55;;;;;;;;;;5087932;28;20229;-59
2021/05/05 10:06:19;;;;;;;7.43;3.27;;;;;;;;;;5093462;28;20263;-59
2021/05/05 10:08:50;;;;;;;11.63;3.30;;;;;;;;;;5092829;28;20467;-56
2021/05/05 10:11:19;;;;;;;5.90;3.17;;;;;;;;;;5092426;28;20465;-60
2021/05/05 10:13:58;;;;;;;5.80;2.97;;;;;;;;;;5093615;28;20494;-55
2021/05/05 10:16:39;;;;;;;4.60;2.57;;;;;;;;;;5089935;28;20448;-59
2021/05/05 10:19:06;;;;;;;4.20;2.83;;;;;;;;;;5090103;28;20441;-56
2021/05/05 10:21:35;;;;;;;6.83;3.10;;;;;;;;;;5078720;28;20475;-60
2021/05/05 10:24:06;;;;;;;7.10;3.17;;;;;;;;;;5085914;28;20464;-57
2021/05/05 10:26:44;;;;;;;6.10;2.97;;;;;;;;;;5094045;28;20460;-58
2021/05/05 10:29:27;;;;;;;6.50;2.50;;;;;;;;;;5092057;28;20460;-58
2021/05/05 10:31:59;;;;;;;5.73;2.73;;;;;;;;;;5092970;28;20490;-55
2021/05/05 10:34:29;;;;;;;6.87;2.70;;;;;;;;;;5091977;28;20500;-58
2021/05/05 10:37:09;;;;;;;8.00;2.20;;;;;;;;;;5091944;28;20464;-55
2021/05/05 10:39:39;;;;;;;9.83;2.70;;;;;;;;;;5092468;28;20481;-56
2021/05/05 10:42:14;;;;;;;7.13;2.73;;;;;;;;;;5084300;28;20486;-59
2021/05/05 10:44:46;;;;;;;5.63;2.27;;;;;;;;;;5092007;28;20926;-58
2021/05/05 10:47:19;;;;;;;6.17;3.13;;;;;;;;;;5092225;28;20491;-53
2021/05/05 10:50:08;;;;;;;7.30;2.50;;;;;;;;;;5091985;28;20437;-53
2021/05/05 10:52:54;;;;;;;5.33;2.93;;;;;;;;;;5083316;28;20464;-56
2021/05/05 10:55:32;;;;;;;5.90;2.73;;;;;;;;;;5080580;28;20535;-60
2021/05/05 10:58:04;;;;;;;3.43;1.63;;;;;;;;;;5089206;28;20513;-55
2021/05/05 11:00:43;;;;;;;5.93;2.40;;;;;;;;;;5091612;28;20550;-58
2021/05/05 11:03:11;;;;;;;5.73;2.00;;;;;;;;;;5071562;28;20488;-59
2021/05/05 11:05:42;;;;;;;7.00;2.70;;;;;;;;;;5081970;28;20519;-56
2021/05/05 11:08:11;;;;;;;4.97;1.70;;;;;;;;;;5083440;28;20463;-58
2021/05/05 11:10:51;;;;;;;6.53;2.40;;;;;;;;;;5091622;28;20475;-53
2021/05/05 11:13:37;;;;;;;7.30;1.97;;;;;;;;;;5092057;28;20447;-56
2021/05/05 11:16:04;;;;;;;8.93;2.03;;;;;;;;;;5086442;28;20464;-57
2021/05/05 11:18:45;;;;;;;5.10;2.33;;;;;;;;;;5091549;28;20472;-57
2021/05/05 11:21:37;;;;;;;9.30;2.37;;;;;;;;;;5082605;28;20476;-58
2021/05/05 11:24:04;;;;;;;11.23;3.10;;;;;;;;;;5089020;28;20476;-57
2021/05/05 11:26:33;;;;;;;6.97;2.37;;;;;;;;;;5092357;28;20514;-60
2021/05/05 11:29:01;;;;;;;6.70;2.40;;;;;;;;;;5092187;28;20483;-61
2021/05/05 11:31:48;;;;;;;6.87;2.33;;;;;;;;;;5091633;28;20467;-60
2021/05/05 11:34:30;;;;;;;5.10;2.20;;;;;;;;;;5091523;28;20460;-55
2021/05/05 11:37:03;;;;;;;4.53;2.00;;;;;;;;;;5091822;28;20463;-57
2021/05/05 11:39:35;;;;;;;5.13;2.00;;;;;;;;;;5091442;28;20522;-56
2021/05/05 11:42:11;;;;;;;8.63;1.80;;;;;;;;;;5092111;28;20922;-54
2021/05/05 11:44:39;;;;;;;7.00;2.87;;;;;;;;;;5091959;28;20451;-61
2021/05/05 11:47:31;;;;;;;6.97;2.30;;;;;;;;;;5095096;28;20460;-55
2021/05/05 11:50:00;;;;;;;6.90;2.23;;;;;;;;;;5093674;28;20518;-52
2021/05/05 11:52:28;;;;;;;5.20;2.17;;;;;;;;;;5095764;28;20452;-60
2021/05/05 11:54:56;;;;;;;6.20;2.13;;;;;;;;;;5095229;28;20456;-57
2021/05/05 11:57:23;;;;;;;7.33;2.40;;;;;;;;;;5093448;28;20461;-54
2021/05/05 12:00:11;;;;;;;6.87;2.10;;;;;;;;;;5094571;28;20452;-54
2021/05/05 12:02:43;;;;;;;6.70;2.83;;;;;;;;;;5090296;28;20475;-57
2021/05/05 12:05:32;;;;;;;5.53;2.50;;;;;;;;;;5097539;28;20478;-51
2021/05/05 12:08:05;;;;;;;6.30;2.03;;;;;;;;;;5090743;28;20467;-57
2021/05/05 12:10:48;;;;;;;8.40;2.43;;;;;;;;;;5097192;28;20459;-57
2021/05/05 12:13:16;;;;;;;7.10;2.53;;;;;;;;;;5095621;28;20517;-58
2021/05/05 12:15:45;;;;;;;7.47;2.83;;;;;;;;;;5089040;28;20463;-57
2021/05/05 12:18:27;;;;;;;4.73;2.47;;;;;;;;;;5095737;28;20726;-57
2021/05/05 12:21:03;;;;;;;5.20;2.20;;;;;;;;;;5063965;28;20648;-59
2021/05/05 12:23:44;;;;;;;7.60;4.20;;;;;;;;;;5082023;28;20447;-49
2021/05/05 12:26:16;;;;;;;6.53;2.30;;;;;;;;;;5094751;28;20460;-58
2021/05/05 12:28:45;;;;;;;10.47;3.13;;;;;;;;;;5096216;28;20456;-60
2021/05/05 12:31:17;;;;;;;6.53;2.77;;;;;;;;;;5096412;28;20455;-59
2021/05/05 12:33:46;;;;;;;4.17;2.00;;;;;;;;;;5094373;28;20441;-56
2021/05/05 12:36:35;;;;;;;5.33;2.37;;;;;;;;;;5095063;28;20519;-54
2021/05/05 12:39:05;;;;;;;7.80;3.00;;;;;;;;;;5095153;28;20463;-53
2021/05/05 12:41:40;;;;;;;7.00;2.00;;;;;;;;;;5088044;28;20467;-51
2021/05/05 12:44:17;;;;;;;5.70;2.27;;;;;;;;;;5094624;28;20455;-54
2021/05/05 12:46:55;;;;;;;8.50;1.80;;;;;;;;;;5095046;28;20459;-55
2021/05/05 12:49:26;;;;;;;6.60;1.97;;;;;;;;;;5085013;28;20483;-59
2021/05/05 12:51:53;;;;;;;5.20;1.60;;;;;;;;;;5085088;28;20460;-56
2021/05/05 12:54:24;;;;;;;9.17;2.20;;;;;;;;;;5094382;28;20463;-54
2021/05/05 12:57:06;;;;;;;6.87;1.50;;;;;;;;;;5092604;28;20502;-59
2021/05/05 12:59:39;;;;;;;11.03;2.80;;;;;;;;;;5094261;28;20460;-57
2021/05/05 13:02:07;;;;;;;2.67;1.40;;;;;;;;;;5090085;28;20488;-61
2021/05/05 13:04:43;;;;;;;5.20;2.13;;;;;;;;;;5080259;28;20457;-53
2021/05/05 13:07:25;;;;;;;4.63;1.73;;;;;;;;;;5091808;28;20872;-54
2021/05/05 13:10:02;;;;;;;7.80;1.60;;;;;;;;;;5093245;28;20482;-54
2021/05/05 13:12:35;;;;;;;4.30;1.53;;;;;;;;;;5084038;28;20438;-60
2021/05/05 13:15:20;;;;;;;3.70;1.90;;;;;;;;;;5090931;28;20447;-52
2021/05/05 13:18:32;;;;;;;9.33;2.20;;;;;;;;;;5094844;28;20466;-56
2021/05/05 13:30:13;;;;;;;3.50;1.80;;;;;;;;;;5091642;28;20684;-54
2021/05/05 13:32:41;;;;;;;8.10;2.50;;;;;;;;;;5095268;28;20460;-56
2021/05/05 13:35:24;;;;;;;5.10;1.40;;;;;;;;;;5093156;28;20460;-58
2021/05/05 13:37:59;;;;;;;5.00;1.70;;;;;;;;;;5074148;28;20447;-58
2021/05/05 13:40:37;;;;;;;5.83;2.13;;;;;;;;;;5093419;28;20435;-61
2021/05/05 13:43:11;;;;;;;5.73;1.90;;;;;;;;;;5094435;28;20483;-58
2021/05/05 13:45:41;;;;;;;3.60;1.93;;;;;;;;;;5092407;28;20468;-62
2021/05/05 13:51:12;;;;;;;5.90;2.20;;;;;;;;;;5092364;28;20423;-60
2021/05/05 13:53:45;;;;;;;4.87;3.00;;;;;;;;;;5073673;28;20667;-60
2021/05/05 13:56:15;;;;;;;6.07;2.00;;;;;;;;;;5090525;28;20464;-58
2021/05/05 13:58:45;;;;;;;6.27;2.27;;;;;;;;;;5093910;28;20461;-55
2021/05/05 14:01:12;;;;;;;6.80;2.23;;;;;;;;;;5081266;28;21359;-59
2021/05/05 14:03:41;;;;;;;5.10;1.77;;;;;;;;;;5093661;28;20496;-58
2021/05/05 14:06:12;;;;;;;7.13;2.00;;;;;;;;;;5093940;28;20489;-55
2021/05/05 14:08:39;;;;;;;4.13;2.20;;;;;;;;;;5095222;28;20436;-60
2021/05/05 14:11:16;;;;;;;5.67;1.87;;;;;;;;;;5094917;28;20461;-55
2021/05/05 14:13:46;;;;;;;3.23;1.40;;;;;;;;;;5095325;28;20526;-58
2021/05/05 14:16:15;;;;;;;7.40;1.70;;;;;;;;;;5095787;28;20456;-58
2021/05/05 14:18:58;;;;;;;8.60;2.07;;;;;;;;;;5094576;28;20519;-54
2021/05/05 14:21:26;;;;;;;11.93;2.17;;;;;;;;;;5087592;28;20451;-53
2021/05/05 14:23:53;;;;;;;8.60;2.43;;;;;;;;;;5089958;28;20456;-57
2021/05/05 14:26:21;;;;;;;5.30;2.63;;;;;;;;;;5080148;28;20448;-56
2021/05/05 14:28:49;;;;;;;6.60;2.60;;;;;;;;;;5090033;28;20472;-59
2021/05/05 14:31:16;;;;;;;5.30;2.50;;;;;;;;;;5096143;28;20478;-57
2021/05/05 14:33:54;;;;;;;8.93;2.73;;;;;;;;;;5094112;28;20440;-54
2021/05/05 14:36:21;;;;;;;6.90;3.07;;;;;;;;;;5092777;28;20535;-60
2021/05/05 14:38:53;;;;;;;4.47;2.60;;;;;;;;;;5094222;28;20500;-60
2021/05/05 14:41:32;;;;;;;10.33;3.23;;;;;;;;;;5094392;28;20476;-50
2021/05/05 14:44:05;;;;;;;8.47;3.37;;;;;;;;;;5090689;28;20458;-61
2021/05/05 14:49:41;;;;;;;8.37;2.30;;;;;;;;;;5060944;28;20428;-59
2021/05/05 14:52:12;;;;;;;6.27;2.70;;;;;;;;;;5092108;28;20451;-54
2021/05/05 14:55:01;;;;;;;8.80;2.70;;;;;;;;;;5087562;28;20468;-56
2021/05/05 14:57:48;;;;;;;4.70;2.63;;;;;;;;;;5093359;28;20452;-56
2021/05/05 15:00:38;;;;;;;6.33;2.50;;;;;;;;;;5088315;28;20455;-56
2021/05/05 15:03:16;;;;;;;5.13;1.97;;;;;;;;;;5090516;28;20587;-61
2021/05/05 15:08:52;;;;;;;9.10;3.30;;;;;;;;;;5090784;28;20426;-54
2021/05/05 15:14:18;;;;;;;6.37;2.17;;;;;;;;;;5092239;28;20454;-54
2021/05/05 15:17:17;;;;;;;12.67;2.27;;;;;;;;;;5090308;28;20472;-55
2021/05/05 15:36:58;;;;;;;4.70;1.50;;;;;;;;;;5080796;28;20429;-53
2021/05/05 15:39:48;;;;;;;5.43;2.40;;;;;;;;;;5094229;28;20454;-57
2021/05/05 15:42:16;;;;;;;5.10;2.20;;;;;;;;;;5078467;28;20677;-57
2021/05/05 15:44:48;;;;;;;5.50;1.97;;;;;;;;;;5090261;28;20471;-55
2021/05/05 15:47:20;;;;;;;5.43;1.93;;;;;;;;;;5090856;28;20466;-54
2021/05/05 15:49:53;;;;;;;6.13;2.83;;;;;;;;;;5087784;28;20505;-50
2021/05/05 15:52:22;;;;;;;9.13;2.27;;;;;;;;;;5080670;28;20519;-60
2021/05/05 15:54:56;;;;;;;7.90;2.30;;;;;;;;;;5090340;28;20462;-60
2021/05/05 15:57:39;;;;;;;4.60;2.20;;;;;;;;;;5091971;28;20463;-59
2021/05/05 16:00:28;;;;;;;5.43;2.40;;;;;;;;;;5092338;28;20646;-58
2021/05/05 16:03:28;;;;;;;4.07;2.07;;;;;;;;;;5085294;28;20514;-60
2021/05/05 16:11:47;;;;;;;7.90;2.60;;;;;;;;;;5093613;28;20431;-53
2021/05/05 16:14:40;;;;;;;4.20;2.20;;;;;;;;;;5085238;28;20543;-60
2021/05/05 16:17:08;;;;;;;7.70;2.17;;;;;;;;;;5086134;28;20452;-60